Time;durP1;ratioP1;P1;durP2;ratioP2;P2;SDS_P1;SDS_P2;PMS_P1;PMS_P2;Temp;Humidity;BMP_temperature;BMP_pressure;BME280_temperature;BME280_humidity;BME280_pressure;Samples;Min_cycle;Max_cycle;Signal;HPM_P1;HPM_P2
2023/02/02 00:01:19;;;;;;;3.40;1.10;;;;;;;;;;5024825;28;20189;-70
2023/02/02 00:03:44;;;;;;;5.70;1.40;;;;;;;;;;5029021;28;20655;-69
2023/02/02 00:06:09;;;;;;;6.93;1.93;;;;;;;;;;5044366;28;20178;-71
2023/02/02 00:08:36;;;;;;;6.33;2.10;;;;;;;;;;5048046;28;20709;-72
2023/02/02 00:11:02;;;;;;;7.53;1.83;;;;;;;;;;5052257;28;20177;-70
2023/02/02 00:13:27;;;;;;;9.43;1.80;;;;;;;;;;5046750;28;20200;-70
2023/02/02 00:15:52;;;;;;;10.57;2.70;;;;;;;;;;5046709;28;20186;-70
2023/02/02 00:18:17;;;;;;;13.13;2.63;;;;;;;;;;5035181;28;20198;-70
2023/02/02 00:20:44;;;;;;;8.87;2.37;;;;;;;;;;5060961;28;20707;-70
2023/02/02 00:23:09;;;;;;;10.90;2.97;;;;;;;;;;5033877;28;20182;-70
2023/02/02 00:25:34;;;;;;;10.10;2.63;;;;;;;;;;5037968;28;20540;-69
2023/02/02 00:27:59;;;;;;;14.07;2.93;;;;;;;;;;5041811;28;20191;-69
2023/02/02 00:30:25;;;;;;;19.00;3.10;;;;;;;;;;5044658;28;20293;-68
2023/02/02 00:32:51;;;;;;;12.37;3.03;;;;;;;;;;5043311;28;20679;-70
2023/02/02 00:35:17;;;;;;;14.53;2.73;;;;;;;;;;5036019;28;20221;-70
2023/02/02 00:37:42;;;;;;;15.80;3.43;;;;;;;;;;5049073;28;20209;-71
2023/02/02 00:40:08;;;;;;;16.43;4.50;;;;;;;;;;5047341;28;20189;-70
2023/02/02 00:42:34;;;;;;;14.37;3.30;;;;;;;;;;5048465;28;20205;-71
2023/02/02 00:45:14;;;;;;;15.70;3.57;;;;;;;;;;5043103;28;20220;-70
2023/02/02 00:47:40;;;;;;;11.20;2.33;;;;;;;;;;5034918;28;20180;-71
2023/02/02 00:50:05;;;;;;;10.63;2.60;;;;;;;;;;5040897;28;20189;-71
2023/02/02 00:52:30;;;;;;;13.23;4.20;;;;;;;;;;5027090;28;20182;-70
2023/02/02 00:54:57;;;;;;;9.30;2.30;;;;;;;;;;5042298;28;20678;-70
2023/02/02 00:57:22;;;;;;;10.97;3.10;;;;;;;;;;5047923;28;20674;-71
2023/02/02 00:59:47;;;;;;;10.20;2.90;;;;;;;;;;5022191;28;20178;-71
2023/02/02 01:02:12;;;;;;;14.53;3.50;;;;;;;;;;5024673;28;20264;-70
2023/02/02 01:04:38;;;;;;;16.03;2.60;;;;;;;;;;5034301;28;20194;-70
2023/02/02 01:07:03;;;;;;;13.63;2.67;;;;;;;;;;5040761;28;20690;-70
2023/02/02 01:09:28;;;;;;;9.03;2.40;;;;;;;;;;5032636;28;20170;-70
2023/02/02 01:11:53;;;;;;;17.27;4.60;;;;;;;;;;5036712;28;20177;-70
2023/02/02 01:14:20;;;;;;;12.80;2.90;;;;;;;;;;5032215;28;20252;-70
2023/02/02 01:16:45;;;;;;;16.53;2.63;;;;;;;;;;5033543;28;20174;-70
2023/02/02 01:19:11;;;;;;;10.97;3.17;;;;;;;;;;5034000;28;20289;-70
2023/02/02 01:21:37;;;;;;;17.40;3.80;;;;;;;;;;5033867;28;20174;-69
2023/02/02 01:24:02;;;;;;;13.43;3.23;;;;;;;;;;5032414;28;20550;-70
2023/02/02 01:26:27;;;;;;;11.87;2.80;;;;;;;;;;5034139;28;20170;-69
2023/02/02 01:28:52;;;;;;;8.07;2.50;;;;;;;;;;5040106;28;20216;-69
2023/02/02 01:31:18;;;;;;;12.97;2.43;;;;;;;;;;5049816;28;20178;-70
2023/02/02 01:33:44;;;;;;;12.80;3.30;;;;;;;;;;5045642;28;20619;-70
2023/02/02 01:36:11;;;;;;;11.60;2.17;;;;;;;;;;5043549;28;20189;-69
2023/02/02 01:38:36;;;;;;;8.17;2.60;;;;;;;;;;5037155;28;20253;-70
2023/02/02 01:41:03;;;;;;;12.27;2.50;;;;;;;;;;5040161;28;20210;-69
2023/02/02 01:43:41;;;;;;;17.47;4.23;;;;;;;;;;5034063;28;20265;-69
2023/02/02 01:46:09;;;;;;;10.93;2.93;;;;;;;;;;5032442;28;20169;-70
2023/02/02 01:48:35;;;;;;;16.13;3.33;;;;;;;;;;5038824;28;20642;-69
2023/02/02 01:51:02;;;;;;;11.93;2.40;;;;;;;;;;5031225;28;20178;-70
2023/02/02 01:53:28;;;;;;;12.03;3.17;;;;;;;;;;5031268;28;20736;-70
2023/02/02 01:55:54;;;;;;;12.67;2.97;;;;;;;;;;5048046;28;20315;-71
2023/02/02 01:58:24;;;;;;;13.23;3.43;;;;;;;;;;5042410;28;20231;-70
2023/02/02 02:00:50;;;;;;;17.10;4.00;;;;;;;;;;5044649;28;20178;-70
2023/02/02 02:03:17;;;;;;;12.47;4.53;;;;;;;;;;5047846;28;20200;-70
2023/02/02 02:05:46;;;;;;;11.60;2.83;;;;;;;;;;5047944;28;20175;-71
2023/02/02 02:08:20;;;;;;;12.97;2.60;;;;;;;;;;5047437;28;20546;-70
2023/02/02 02:10:45;;;;;;;13.20;3.33;;;;;;;;;;5046982;28;20177;-71
2023/02/02 02:13:10;;;;;;;19.70;4.63;;;;;;;;;;5050546;28;20181;-70
2023/02/02 02:18:49;;;;;;;10.40;2.70;;;;;;;;;;5046578;28;20259;-70
2023/02/02 02:27:17;;;;;;;11.30;2.50;;;;;;;;;;5038332;28;20201;-70
2023/02/02 02:29:48;;;;;;;17.70;5.23;;;;;;;;;;5048386;28;20642;-70
2023/02/02 02:32:21;;;;;;;10.07;3.00;;;;;;;;;;5049470;28;20185;-69
2023/02/02 02:34:55;;;;;;;6.60;2.67;;;;;;;;;;5048660;28;20237;-70
2023/02/02 02:37:23;;;;;;;9.87;2.30;;;;;;;;;;5047555;28;20200;-71
2023/02/02 02:39:50;;;;;;;15.37;2.80;;;;;;;;;;5044071;28;20170;-71
2023/02/02 02:42:18;;;;;;;13.70;3.13;;;;;;;;;;5045016;28;20653;-71
2023/02/02 02:44:44;;;;;;;15.63;3.30;;;;;;;;;;5050670;28;20198;-71
2023/02/02 02:47:09;;;;;;;7.43;3.07;;;;;;;;;;5043677;28;20181;-72
2023/02/02 02:49:42;;;;;;;8.60;2.93;;;;;;;;;;5043593;28;20196;-72
2023/02/02 02:52:07;;;;;;;11.30;3.33;;;;;;;;;;5046901;28;20654;-70
2023/02/02 02:54:34;;;;;;;17.40;3.03;;;;;;;;;;5042069;28;20296;-70
2023/02/02 02:57:08;;;;;;;12.47;3.17;;;;;;;;;;5044180;28;20189;-71
2023/02/02 02:59:37;;;;;;;15.43;2.93;;;;;;;;;;5047815;28;20180;-70
2023/02/02 03:02:02;;;;;;;10.70;2.37;;;;;;;;;;5046540;28;20666;-71
2023/02/02 03:04:31;;;;;;;13.60;3.00;;;;;;;;;;5048519;28;20197;-71
2023/02/02 03:06:59;;;;;;;16.97;3.63;;;;;;;;;;5043942;28;20177;-71
2023/02/02 03:09:28;;;;;;;16.93;3.27;;;;;;;;;;5042566;28;20181;-71
2023/02/02 03:11:54;;;;;;;8.87;2.47;;;;;;;;;;5049121;28;20189;-71
2023/02/02 03:14:19;;;;;;;10.67;3.00;;;;;;;;;;5049849;28;20193;-70
2023/02/02 03:16:44;;;;;;;11.27;4.07;;;;;;;;;;5052049;28;20257;-70
2023/02/02 03:19:09;;;;;;;13.60;3.43;;;;;;;;;;5041711;28;20275;-70
2023/02/02 03:21:34;;;;;;;11.47;3.20;;;;;;;;;;5043343;28;21699;-70
2023/02/02 03:24:00;;;;;;;9.20;2.67;;;;;;;;;;5042978;28;20230;-70
2023/02/02 03:26:26;;;;;;;11.00;2.70;;;;;;;;;;5035251;28;20200;-70
2023/02/02 03:28:52;;;;;;;12.57;3.90;;;;;;;;;;5028823;28;20244;-71
2023/02/02 03:31:17;;;;;;;10.43;3.70;;;;;;;;;;5035220;28;20174;-70
2023/02/02 03:33:43;;;;;;;14.90;2.93;;;;;;;;;;5040248;28;20216;-70
2023/02/02 03:36:08;;;;;;;11.90;3.70;;;;;;;;;;5032470;28;21682;-70
2023/02/02 03:38:34;;;;;;;16.40;3.60;;;;;;;;;;5035015;28;20685;-69
2023/02/02 03:40:59;;;;;;;13.43;2.73;;;;;;;;;;5033449;28;20179;-70
2023/02/02 03:43:24;;;;;;;17.30;3.30;;;;;;;;;;5039923;28;20275;-70
2023/02/02 03:45:56;;;;;;;12.53;4.03;;;;;;;;;;5035448;28;20194;-70
2023/02/02 03:48:21;;;;;;;13.60;2.80;;;;;;;;;;5033904;28;20232;-71
2023/02/02 03:50:47;;;;;;;10.53;2.67;;;;;;;;;;5042673;28;20186;-71
2023/02/02 03:53:12;;;;;;;15.80;2.80;;;;;;;;;;5035692;28;20647;-70
2023/02/02 03:55:39;;;;;;;14.83;2.47;;;;;;;;;;5046961;28;20186;-70
2023/02/02 03:58:04;;;;;;;9.13;2.73;;;;;;;;;;5038419;28;20582;-70
2023/02/02 04:00:29;;;;;;;11.97;2.70;;;;;;;;;;5038654;28;20175;-69
2023/02/02 04:02:55;;;;;;;12.80;2.23;;;;;;;;;;5038505;28;20206;-69
2023/02/02 04:05:20;;;;;;;12.13;2.77;;;;;;;;;;5039137;28;20185;-71
2023/02/02 04:07:45;;;;;;;8.10;2.20;;;;;;;;;;5047604;28;20182;-70
2023/02/02 04:10:10;;;;;;;9.57;2.40;;;;;;;;;;5050125;28;20268;-71
2023/02/02 04:12:35;;;;;;;13.27;2.80;;;;;;;;;;5045602;28;20183;-69
2023/02/02 04:15:01;;;;;;;9.30;1.93;;;;;;;;;;5048443;28;20275;-70
2023/02/02 04:17:26;;;;;;;11.97;2.93;;;;;;;;;;5048506;28;20201;-70
2023/02/02 04:19:56;;;;;;;7.80;2.40;;;;;;;;;;5044559;28;20180;-70
2023/02/02 04:22:22;;;;;;;13.90;4.30;;;;;;;;;;5046307;28;20177;-70
2023/02/02 04:24:47;;;;;;;14.23;3.17;;;;;;;;;;5045755;28;20729;-70
2023/02/02 04:27:12;;;;;;;16.80;4.20;;;;;;;;;;5047497;28;20185;-70
2023/02/02 04:29:37;;;;;;;9.63;2.40;;;;;;;;;;5042582;28;20185;-70
2023/02/02 04:32:02;;;;;;;17.30;4.80;;;;;;;;;;5048577;28;20643;-70
2023/02/02 04:34:28;;;;;;;11.33;2.17;;;;;;;;;;5038473;28;20225;-70
2023/02/02 04:36:53;;;;;;;12.33;2.77;;;;;;;;;;5045616;28;20177;-70
2023/02/02 04:39:18;;;;;;;8.80;2.10;;;;;;;;;;5043773;28;20210;-70
2023/02/02 04:41:43;;;;;;;12.00;2.07;;;;;;;;;;5042989;28;20185;-70
2023/02/02 04:44:15;;;;;;;11.73;2.70;;;;;;;;;;5046468;28;20193;-70
2023/02/02 04:46:43;;;;;;;13.30;2.83;;;;;;;;;;5037356;28;20184;-70
2023/02/02 04:49:10;;;;;;;8.47;1.97;;;;;;;;;;5048522;28;20220;-70
2023/02/02 04:51:35;;;;;;;18.77;3.30;;;;;;;;;;5045435;28;20269;-70
2023/02/02 04:54:00;;;;;;;10.53;3.07;;;;;;;;;;5044856;28;20288;-69
2023/02/02 04:56:27;;;;;;;12.43;2.60;;;;;;;;;;5047676;28;20269;-69
2023/02/02 04:58:53;;;;;;;8.30;2.17;;;;;;;;;;5049155;28;20678;-70
2023/02/02 05:01:19;;;;;;;7.37;2.60;;;;;;;;;;5051050;28;20176;-70
2023/02/02 05:03:45;;;;;;;9.27;2.50;;;;;;;;;;5048859;28;20197;-69
2023/02/02 05:06:10;;;;;;;10.90;2.97;;;;;;;;;;5048023;28;20173;-69
2023/02/02 05:08:35;;;;;;;9.80;3.13;;;;;;;;;;5047135;28;20194;-70
2023/02/02 05:11:11;;;;;;;6.80;2.23;;;;;;;;;;5040166;28;20239;-70
2023/02/02 05:13:37;;;;;;;8.73;1.93;;;;;;;;;;5043787;28;20208;-70
2023/02/02 05:16:02;;;;;;;13.03;3.13;;;;;;;;;;5048780;28;20182;-69
2023/02/02 05:18:27;;;;;;;16.30;2.53;;;;;;;;;;5048882;28;20805;-70
2023/02/02 05:20:53;;;;;;;9.40;2.53;;;;;;;;;;5036733;28;20177;-70
2023/02/02 05:23:19;;;;;;;11.30;2.20;;;;;;;;;;5038696;28;20187;-69
2023/02/02 05:25:44;;;;;;;8.47;2.30;;;;;;;;;;5041171;28;20252;-70
2023/02/02 05:28:09;;;;;;;10.20;1.87;;;;;;;;;;5042303;28;20212;-69
2023/02/02 05:30:34;;;;;;;10.17;2.20;;;;;;;;;;5036508;28;20184;-70
2023/02/02 05:32:59;;;;;;;12.97;2.30;;;;;;;;;;5044131;28;20181;-69
2023/02/02 05:35:25;;;;;;;11.47;2.23;;;;;;;;;;5097329;22;20318;-71
2023/02/02 05:37:50;;;;;;;11.60;2.30;;;;;;;;;;5090188;28;20669;-73
2023/02/02 05:40:15;;;;;;;9.83;2.47;;;;;;;;;;5092914;28;20190;-73
2023/02/02 05:42:40;;;;;;;7.10;2.40;;;;;;;;;;5092234;28;20180;-73
2023/02/02 05:45:06;;;;;;;9.80;1.70;;;;;;;;;;5091699;28;20196;-73
2023/02/02 05:47:31;;;;;;;10.40;1.80;;;;;;;;;;5095059;28;20184;-72
2023/02/02 05:49:56;;;;;;;9.77;2.37;;;;;;;;;;5078330;28;20263;-73
2023/02/02 05:52:23;;;;;;;5.70;1.83;;;;;;;;;;5091163;28;20180;-72
2023/02/02 05:54:48;;;;;;;11.07;3.17;;;;;;;;;;5086643;28;20624;-72
2023/02/02 05:57:13;;;;;;;9.40;2.13;;;;;;;;;;5081891;28;20180;-72
2023/02/02 05:59:38;;;;;;;7.33;2.03;;;;;;;;;;5082697;28;20196;-72
2023/02/02 06:02:03;;;;;;;8.87;2.37;;;;;;;;;;5084752;28;20173;-72
2023/02/02 06:04:29;;;;;;;7.90;2.07;;;;;;;;;;5083027;28;20196;-72
2023/02/02 06:06:54;;;;;;;8.20;2.40;;;;;;;;;;5080602;28;20180;-72
2023/02/02 06:09:19;;;;;;;6.63;1.83;;;;;;;;;;5082573;28;20168;-72
2023/02/02 06:11:44;;;;;;;7.50;2.13;;;;;;;;;;5081665;28;20199;-72
2023/02/02 06:14:09;;;;;;;13.03;2.43;;;;;;;;;;5085516;28;20201;-72
2023/02/02 06:16:35;;;;;;;7.73;2.40;;;;;;;;;;5093220;28;20188;-72
2023/02/02 06:19:00;;;;;;;11.57;2.43;;;;;;;;;;5099895;28;20680;-72
2023/02/02 06:21:25;;;;;;;7.77;2.27;;;;;;;;;;5102867;28;20219;-73
2023/02/02 06:23:51;;;;;;;18.77;3.37;;;;;;;;;;5088677;28;20199;-73
2023/02/02 06:26:16;;;;;;;10.10;4.03;;;;;;;;;;5099460;28;20568;-73
2023/02/02 06:28:42;;;;;;;7.67;1.77;;;;;;;;;;5090635;28;20637;-73
2023/02/02 06:31:08;;;;;;;12.63;2.80;;;;;;;;;;5082487;28;20184;-73
2023/02/02 06:33:33;;;;;;;10.77;2.77;;;;;;;;;;5096673;28;20192;-71
2023/02/02 06:36:02;;;;;;;9.23;2.37;;;;;;;;;;5087775;28;20603;-71
2023/02/02 06:38:28;;;;;;;13.63;3.00;;;;;;;;;;5098914;28;20715;-71
2023/02/02 06:40:53;;;;;;;6.13;1.93;;;;;;;;;;5089741;28;20204;-71
2023/02/02 06:43:18;;;;;;;8.73;2.40;;;;;;;;;;5081757;28;20681;-72
2023/02/02 06:45:43;;;;;;;8.23;2.47;;;;;;;;;;5079635;28;20218;-72
2023/02/02 06:48:09;;;;;;;10.83;3.53;;;;;;;;;;5081595;28;20306;-73
2023/02/02 06:50:35;;;;;;;8.60;2.67;;;;;;;;;;5066517;28;20182;-73
2023/02/02 06:53:01;;;;;;;9.07;3.50;;;;;;;;;;5090688;28;20238;-73
2023/02/02 06:55:26;;;;;;;10.83;2.27;;;;;;;;;;5082823;28;20204;-72
2023/02/02 06:57:58;;;;;;;7.43;2.47;;;;;;;;;;5073400;28;20568;-73
2023/02/02 07:00:23;;;;;;;15.43;2.83;;;;;;;;;;5074189;28;20267;-73
2023/02/02 07:02:48;;;;;;;12.17;3.50;;;;;;;;;;5063685;28;20268;-72
2023/02/02 07:05:13;;;;;;;7.00;3.00;;;;;;;;;;5077974;28;20275;-72
2023/02/02 07:07:39;;;;;;;7.43;2.37;;;;;;;;;;5076838;28;20320;-73
2023/02/02 07:10:04;;;;;;;12.07;2.87;;;;;;;;;;5072850;28;20305;-73
2023/02/02 07:12:29;;;;;;;11.27;2.83;;;;;;;;;;5076711;28;20181;-73
2023/02/02 07:14:55;;;;;;;6.50;2.30;;;;;;;;;;5078271;28;20196;-72
2023/02/02 07:17:20;;;;;;;14.00;3.43;;;;;;;;;;5075288;28;20215;-73
2023/02/02 07:19:45;;;;;;;9.23;2.60;;;;;;;;;;5079713;28;20175;-73
2023/02/02 07:22:10;;;;;;;13.47;2.63;;;;;;;;;;5067103;28;20180;-70
2023/02/02 07:24:38;;;;;;;10.07;2.87;;;;;;;;;;5060546;28;20716;-71
2023/02/02 07:27:04;;;;;;;17.07;2.87;;;;;;;;;;5062362;28;20203;-73
2023/02/02 07:29:29;;;;;;;9.53;2.70;;;;;;;;;;5075107;28;20181;-73
2023/02/02 07:31:54;;;;;;;16.97;3.33;;;;;;;;;;5075833;28;20227;-73
2023/02/02 07:34:19;;;;;;;13.23;3.50;;;;;;;;;;5074269;28;20224;-74
2023/02/02 07:36:45;;;;;;;15.90;3.23;;;;;;;;;;5076677;28;20231;-73
2023/02/02 07:39:10;;;;;;;12.07;3.90;;;;;;;;;;5075575;28;20196;-73
2023/02/02 07:41:35;;;;;;;9.77;3.17;;;;;;;;;;5074816;28;20164;-71
2023/02/02 07:44:01;;;;;;;11.53;2.40;;;;;;;;;;5066569;28;20246;-72
2023/02/02 07:46:26;;;;;;;10.57;3.30;;;;;;;;;;5094486;28;20182;-72
2023/02/02 07:48:52;;;;;;;12.40;3.30;;;;;;;;;;5094558;28;20255;-72
2023/02/02 07:51:18;;;;;;;7.93;2.30;;;;;;;;;;5092338;28;20180;-72
2023/02/02 07:53:44;;;;;;;11.43;3.03;;;;;;;;;;5093819;28;20195;-72
2023/02/02 07:56:11;;;;;;;10.03;2.43;;;;;;;;;;5100588;28;20192;-73
2023/02/02 07:58:37;;;;;;;11.77;2.83;;;;;;;;;;5092270;28;20208;-72
2023/02/02 08:01:03;;;;;;;7.80;2.47;;;;;;;;;;5093208;28;20203;-73
2023/02/02 08:03:28;;;;;;;9.23;2.47;;;;;;;;;;5087463;28;20229;-70
2023/02/02 08:05:53;;;;;;;16.13;3.47;;;;;;;;;;5093244;28;20657;-73
2023/02/02 08:08:18;;;;;;;11.20;3.27;;;;;;;;;;5097630;28;20224;-72
2023/02/02 08:10:47;;;;;;;11.67;2.83;;;;;;;;;;5093519;28;20264;-73
2023/02/02 08:13:12;;;;;;;8.73;2.70;;;;;;;;;;5093007;28;20300;-73
2023/02/02 08:15:38;;;;;;;11.40;2.43;;;;;;;;;;5091211;28;20225;-72
2023/02/02 08:18:03;;;;;;;16.00;2.70;;;;;;;;;;5071801;28;20930;-73
2023/02/02 08:20:28;;;;;;;14.77;2.53;;;;;;;;;;5070880;28;20180;-73
2023/02/02 08:22:55;;;;;;;14.07;2.90;;;;;;;;;;5059439;28;20168;-72
2023/02/02 08:25:20;;;;;;;13.13;2.37;;;;;;;;;;5075437;28;20642;-72
2023/02/02 08:27:45;;;;;;;16.97;3.53;;;;;;;;;;5077854;28;20268;-72
2023/02/02 08:30:10;;;;;;;11.50;2.43;;;;;;;;;;5076334;28;20177;-73
2023/02/02 08:32:36;;;;;;;7.07;2.13;;;;;;;;;;5079455;28;20179;-72
2023/02/02 08:35:01;;;;;;;13.13;1.83;;;;;;;;;;5075168;28;20750;-73
2023/02/02 08:37:26;;;;;;;12.13;3.27;;;;;;;;;;5073971;28;20212;-72
2023/02/02 08:39:51;;;;;;;9.10;2.80;;;;;;;;;;5075146;28;20179;-72
2023/02/02 08:42:16;;;;;;;10.97;2.77;;;;;;;;;;5074342;28;20195;-73
2023/02/02 08:44:42;;;;;;;15.63;2.33;;;;;;;;;;5077386;28;20189;-72
2023/02/02 08:47:07;;;;;;;11.00;2.07;;;;;;;;;;5076802;28;20267;-73
2023/02/02 08:49:32;;;;;;;10.27;2.57;;;;;;;;;;5078564;28;20587;-72
2023/02/02 08:51:57;;;;;;;9.33;3.17;;;;;;;;;;5072835;28;20559;-72
2023/02/02 08:54:22;;;;;;;12.67;2.40;;;;;;;;;;5074168;28;20192;-72
2023/02/02 08:56:48;;;;;;;12.70;2.53;;;;;;;;;;5072888;28;20203;-72
2023/02/02 08:59:13;;;;;;;11.30;2.80;;;;;;;;;;5070837;28;20474;-73
2023/02/02 09:01:38;;;;;;;14.73;3.20;;;;;;;;;;5063053;28;20667;-73
2023/02/02 09:04:05;;;;;;;9.63;1.80;;;;;;;;;;5072757;28;20708;-72
2023/02/02 09:06:32;;;;;;;16.63;2.97;;;;;;;;;;5070452;28;20180;-72
2023/02/02 09:08:57;;;;;;;16.93;3.80;;;;;;;;;;5073321;28;20252;-72
2023/02/02 09:11:22;;;;;;;7.27;2.37;;;;;;;;;;5074079;28;20192;-72
2023/02/02 09:13:48;;;;;;;11.40;2.47;;;;;;;;;;5072303;28;20554;-72
2023/02/02 09:16:14;;;;;;;7.97;1.90;;;;;;;;;;5071906;28;20578;-72
2023/02/02 09:18:40;;;;;;;7.67;1.93;;;;;;;;;;5073658;28;20684;-72
2023/02/02 09:21:06;;;;;;;10.77;3.70;;;;;;;;;;5072625;28;20554;-72
2023/02/02 09:23:33;;;;;;;9.53;2.60;;;;;;;;;;5072344;28;20168;-73
2023/02/02 09:26:09;;;;;;;4.63;2.27;;;;;;;;;;5073505;28;20300;-73
2023/02/02 09:28:34;;;;;;;9.67;2.40;;;;;;;;;;5072526;28;20254;-72
2023/02/02 09:31:02;;;;;;;7.90;2.10;;;;;;;;;;5074390;28;20275;-72
2023/02/02 09:33:28;;;;;;;13.87;2.73;;;;;;;;;;5074542;28;20180;-72
2023/02/02 09:35:53;;;;;;;5.90;2.27;;;;;;;;;;5075445;28;20199;-72
2023/02/02 09:38:18;;;;;;;11.83;3.40;;;;;;;;;;5071751;28;20208;-72
2023/02/02 09:40:43;;;;;;;5.87;1.90;;;;;;;;;;5072518;28;20180;-72
2023/02/02 09:43:35;;;;;;;7.23;2.03;;;;;;;;;;5075274;28;20440;-72
2023/02/02 09:46:04;;;;;;;11.90;2.03;;;;;;;;;;5072014;28;20246;-73
2023/02/02 09:48:39;;;;;;;15.97;2.30;;;;;;;;;;5077877;28;20668;-72
2023/02/02 09:51:10;;;;;;;8.10;2.20;;;;;;;;;;5074037;28;20187;-72
2023/02/02 09:53:36;;;;;;;7.47;3.57;;;;;;;;;;5070651;28;20592;-73
2023/02/02 09:56:04;;;;;;;9.50;2.77;;;;;;;;;;5075794;28;20322;-72
2023/02/02 09:58:35;;;;;;;6.77;1.63;;;;;;;;;;5077899;28;20216;-73
2023/02/02 10:01:00;;;;;;;11.33;2.43;;;;;;;;;;5076732;28;20185;-73
2023/02/02 10:03:44;;;;;;;7.97;1.90;;;;;;;;;;5076288;28;20173;-73
2023/02/02 10:06:28;;;;;;;9.37;2.37;;;;;;;;;;5074643;28;20631;-72
2023/02/02 10:09:00;;;;;;;5.10;1.80;;;;;;;;;;5076846;28;20168;-72
2023/02/02 10:11:38;;;;;;;9.13;2.67;;;;;;;;;;5073277;28;20207;-73
2023/02/02 10:14:10;;;;;;;12.47;3.40;;;;;;;;;;5071149;28;20222;-72
2023/02/02 10:16:37;;;;;;;9.97;3.67;;;;;;;;;;5074538;28;20176;-72
2023/02/02 10:19:10;;;;;;;7.67;3.23;;;;;;;;;;5070261;28;20238;-72
2023/02/02 10:21:41;;;;;;;9.17;2.90;;;;;;;;;;5075884;28;20233;-72
2023/02/02 10:24:15;;;;;;;9.33;2.23;;;;;;;;;;5073503;28;20291;-73
2023/02/02 10:26:54;;;;;;;5.23;1.80;;;;;;;;;;5075682;28;20329;-72
2023/02/02 10:29:30;;;;;;;9.93;2.30;;;;;;;;;;5075760;28;20172;-72
2023/02/02 10:32:22;;;;;;;7.97;2.50;;;;;;;;;;5077679;28;20187;-72
2023/02/02 10:35:04;;;;;;;7.17;2.50;;;;;;;;;;5055838;28;20331;-72
2023/02/02 10:37:37;;;;;;;9.03;3.33;;;;;;;;;;5076003;28;20176;-73
2023/02/02 10:40:19;;;;;;;7.83;2.00;;;;;;;;;;5076231;28;20200;-73
2023/02/02 10:45:41;;;;;;;10.93;2.10;;;;;;;;;;5058628;28;20491;-72
2023/02/02 10:48:14;;;;;;;4.50;2.00;;;;;;;;;;5077265;28;20197;-72
2023/02/02 10:50:41;;;;;;;12.03;2.30;;;;;;;;;;5079284;28;20179;-72
2023/02/02 10:53:12;;;;;;;6.27;2.13;;;;;;;;;;5077474;28;20181;-73
2023/02/02 10:55:55;;;;;;;8.07;2.30;;;;;;;;;;5078377;28;20199;-73
2023/02/02 10:58:23;;;;;;;6.30;1.80;;;;;;;;;;5081026;28;20208;-72
2023/02/02 11:00:50;;;;;;;7.83;2.17;;;;;;;;;;5079827;28;20633;-73
2023/02/02 11:03:16;;;;;;;5.83;1.73;;;;;;;;;;5087367;28;20172;-72
2023/02/02 11:08:28;;;;;;;9.50;2.03;;;;;;;;;;5075662;28;20214;-71
2023/02/02 11:10:54;;;;;;;7.97;1.90;;;;;;;;;;5077020;28;20177;-72
2023/02/02 11:13:22;;;;;;;5.10;1.67;;;;;;;;;;5070847;28;20184;-72
2023/02/02 11:15:48;;;;;;;9.80;1.67;;;;;;;;;;5062465;28;20180;-72
2023/02/02 11:18:24;;;;;;;7.10;1.83;;;;;;;;;;5063497;28;20200;-72
2023/02/02 11:20:49;;;;;;;7.43;1.70;;;;;;;;;;5062812;28;20216;-71
2023/02/02 11:23:16;;;;;;;8.53;2.30;;;;;;;;;;5063498;28;20267;-71
2023/02/02 11:25:42;;;;;;;8.70;1.93;;;;;;;;;;5062971;28;22195;-71
2023/02/02 11:28:20;;;;;;;12.83;2.97;;;;;;;;;;5062769;28;20181;-72
2023/02/02 11:30:51;;;;;;;8.27;2.50;;;;;;;;;;5067261;28;20180;-73
2023/02/02 11:33:30;;;;;;;13.57;2.50;;;;;;;;;;5064973;28;20189;-73
2023/02/02 11:35:59;;;;;;;8.97;1.93;;;;;;;;;;5064318;28;20642;-72
2023/02/02 11:38:26;;;;;;;5.13;1.93;;;;;;;;;;5083931;28;20282;-72
2023/02/02 11:40:52;;;;;;;4.43;1.67;;;;;;;;;;5080874;28;20196;-72
2023/02/02 11:43:24;;;;;;;17.97;3.00;;;;;;;;;;5064869;28;20207;-72
2023/02/02 11:45:56;;;;;;;7.93;2.63;;;;;;;;;;5062040;28;20168;-72
2023/02/02 11:48:25;;;;;;;8.30;2.93;;;;;;;;;;5061731;28;20188;-73
2023/02/02 11:50:52;;;;;;;9.27;2.33;;;;;;;;;;5061052;28;20201;-73
2023/02/02 11:53:22;;;;;;;5.13;2.47;;;;;;;;;;5062211;28;20188;-73
2023/02/02 11:55:47;;;;;;;16.53;4.23;;;;;;;;;;5069723;28;20211;-72
2023/02/02 11:58:12;;;;;;;7.50;1.63;;;;;;;;;;5067140;28;20287;-72
2023/02/02 12:00:48;;;;;;;13.03;2.40;;;;;;;;;;5062872;28;20377;-72
2023/02/02 12:03:23;;;;;;;10.67;1.80;;;;;;;;;;5060540;28;20551;-72
2023/02/02 12:05:49;;;;;;;11.30;2.47;;;;;;;;;;5064522;28;20188;-72
2023/02/02 12:08:14;;;;;;;12.10;2.53;;;;;;;;;;5064653;28;20184;-72
2023/02/02 12:10:58;;;;;;;11.20;2.30;;;;;;;;;;5063102;28;20184;-72
2023/02/02 12:13:41;;;;;;;14.30;3.43;;;;;;;;;;5063542;28;20187;-72
2023/02/02 12:16:25;;;;;;;7.17;2.03;;;;;;;;;;5063989;28;20177;-72
2023/02/02 12:18:58;;;;;;;17.43;3.80;;;;;;;;;;5073954;22;20918;-72
2023/02/02 12:21:30;;;;;;;13.47;2.13;;;;;;;;;;5067381;28;20189;-72
2023/02/02 12:24:01;;;;;;;9.00;2.23;;;;;;;;;;5069167;28;20179;-72
2023/02/02 12:26:27;;;;;;;6.07;1.90;;;;;;;;;;5068453;28;20177;-72
2023/02/02 12:28:52;;;;;;;5.63;2.33;;;;;;;;;;5070468;28;20184;-72
2023/02/02 12:31:25;;;;;;;6.87;2.20;;;;;;;;;;5068232;28;20206;-72
2023/02/02 12:34:09;;;;;;;10.17;1.93;;;;;;;;;;5069152;28;20654;-72
2023/02/02 12:36:53;;;;;;;11.23;2.50;;;;;;;;;;5067869;28;20188;-72
2023/02/02 12:39:21;;;;;;;16.17;2.87;;;;;;;;;;5069083;28;22015;-73
2023/02/02 12:42:02;;;;;;;6.53;1.80;;;;;;;;;;5069190;28;20180;-73
2023/02/02 12:44:33;;;;;;;6.20;2.23;;;;;;;;;;5048373;28;20183;-73
2023/02/02 12:47:04;;;;;;;9.03;2.17;;;;;;;;;;5069943;28;20216;-72
2023/02/02 12:49:36;;;;;;;4.93;1.63;;;;;;;;;;5066968;28;21665;-72
2023/02/02 12:52:10;;;;;;;10.40;2.43;;;;;;;;;;5068206;28;20196;-72
2023/02/02 12:54:44;;;;;;;5.93;1.60;;;;;;;;;;5073539;28;20175;-72
2023/02/02 12:57:10;;;;;;;10.40;2.17;;;;;;;;;;5068404;28;20347;-72
2023/02/02 12:59:54;;;;;;;12.70;2.03;;;;;;;;;;5072342;28;20269;-72
2023/02/02 13:02:25;;;;;;;8.43;2.20;;;;;;;;;;5072377;28;20750;-72
2023/02/02 13:05:08;;;;;;;7.67;2.80;;;;;;;;;;5068110;28;20234;-73
2023/02/02 13:07:37;;;;;;;12.10;2.80;;;;;;;;;;5051648;28;20289;-72
2023/02/02 13:10:07;;;;;;;9.13;2.00;;;;;;;;;;5046912;28;20291;-72
2023/02/02 13:12:35;;;;;;;5.97;2.30;;;;;;;;;;5047841;28;20176;-73
2023/02/02 13:15:03;;;;;;;8.90;2.70;;;;;;;;;;5048040;28;20677;-72
2023/02/02 13:17:35;;;;;;;9.50;2.13;;;;;;;;;;5069274;28;20645;-73
2023/02/02 13:20:03;;;;;;;10.13;2.23;;;;;;;;;;5068853;28;20208;-73
2023/02/02 13:22:42;;;;;;;16.07;3.87;;;;;;;;;;5065942;28;20177;-72
2023/02/02 13:25:14;;;;;;;10.77;2.27;;;;;;;;;;5067632;28;20222;-73
2023/02/02 13:27:40;;;;;;;10.27;3.07;;;;;;;;;;5080549;28;20700;-72
2023/02/02 13:30:24;;;;;;;4.33;2.00;;;;;;;;;;5068626;28;20211;-71
2023/02/02 13:32:52;;;;;;;5.57;1.80;;;;;;;;;;5069825;28;20272;-72
2023/02/02 13:35:46;;;;;;;3.57;1.97;;;;;;;;;;5068461;28;20171;-72
2023/02/02 13:38:12;;;;;;;6.80;1.97;;;;;;;;;;5049871;28;20215;-72
2023/02/02 13:40:39;;;;;;;5.40;2.00;;;;;;;;;;5051168;28;20335;-72
2023/02/02 13:43:04;;;;;;;5.13;2.03;;;;;;;;;;5050004;28;20181;-73
2023/02/02 13:45:37;;;;;;;6.33;2.00;;;;;;;;;;5074477;28;20184;-72
2023/02/02 13:48:16;;;;;;;6.90;2.93;;;;;;;;;;5065449;28;20189;-73
2023/02/02 13:51:01;;;;;;;2.57;2.03;;;;;;;;;;5048631;28;20257;-73
2023/02/02 13:53:26;;;;;;;5.37;2.03;;;;;;;;;;5067313;28;20172;-72
2023/02/02 13:55:51;;;;;;;5.93;2.70;;;;;;;;;;5072054;28;20188;-73
2023/02/02 13:58:16;;;;;;;8.93;2.43;;;;;;;;;;5070536;28;20200;-73
2023/02/02 14:00:46;;;;;;;9.27;2.57;;;;;;;;;;5067518;28;20192;-73
2023/02/02 14:03:17;;;;;;;6.53;2.53;;;;;;;;;;5070782;28;20172;-73
2023/02/02 14:05:42;;;;;;;5.07;2.10;;;;;;;;;;5066489;28;20184;-73
2023/02/02 14:08:11;;;;;;;3.67;1.73;;;;;;;;;;5072713;28;20218;-73
2023/02/02 14:10:36;;;;;;;3.47;2.30;;;;;;;;;;5071211;28;20206;-72
2023/02/02 14:13:06;;;;;;;5.33;2.20;;;;;;;;;;5071786;28;20185;-72
2023/02/02 14:15:39;;;;;;;3.10;2.27;;;;;;;;;;5072761;28;20211;-72
2023/02/02 14:18:04;;;;;;;5.63;2.37;;;;;;;;;;5072340;28;20974;-72
2023/02/02 14:20:40;;;;;;;3.20;1.80;;;;;;;;;;5070212;28;20340;-73
2023/02/02 14:23:24;;;;;;;2.53;1.90;;;;;;;;;;5071647;28;20194;-72
2023/02/02 14:26:03;;;;;;;4.27;2.03;;;;;;;;;;5071292;28;20738;-72
2023/02/02 14:28:38;;;;;;;3.63;2.10;;;;;;;;;;5068388;28;20187;-72
2023/02/02 14:31:16;;;;;;;1.97;1.70;;;;;;;;;;5071792;28;20215;-72
2023/02/02 14:33:46;;;;;;;2.50;1.80;;;;;;;;;;5050064;28;20563;-72
2023/02/02 14:36:12;;;;;;;4.77;2.20;;;;;;;;;;5071060;28;20200;-72
2023/02/02 14:38:54;;;;;;;3.97;2.27;;;;;;;;;;5055131;28;20200;-74
2023/02/02 14:44:16;;;;;;;2.60;2.40;;;;;;;;;;5074450;28;20191;-73
2023/02/02 14:46:47;;;;;;;3.47;2.57;;;;;;;;;;5073475;28;20643;-73
2023/02/02 14:49:14;;;;;;;3.93;2.67;;;;;;;;;;5054674;28;21079;-73
2023/02/02 14:51:48;;;;;;;5.20;3.37;;;;;;;;;;5071085;28;20196;-73
2023/02/02 14:54:36;;;;;;;3.60;3.13;;;;;;;;;;5071179;28;20316;-73
2023/02/02 14:57:04;;;;;;;5.40;3.07;;;;;;;;;;5072558;28;20591;-73
2023/02/02 14:59:34;;;;;;;5.33;2.90;;;;;;;;;;5053386;28;20252;-74